Latest Weather Observations for Rabbit Flat

IDD60801

Issued at 9:31 pm CST Sunday 21 December 2014 (issued every 30 minutes, with the page automatically refreshed every 10 minutes)

About weather observations | Map of weather stations | Latest weather observations for NT | Other Formats
Station Details ID: 015666 Name: RABBIT FLAT Lat: -20.18 Lon: 130.01 Height: 340.0 m
Data from the previous 72 hours. | See also: Recent months at Rabbit Flat
Date/Time
CST
Temp
°C
App
Temp
°C
Dew
Point
Rel
Hum
%
Delta-T
°C
Wind Press
QNH
hPa
Press
MSL
hPa
Rain
since 9 am
mm
Dir
 
Spd
km/h
Gust
km/h
Spd
kts
Gust
kts
21/09:30pm 31.9 33.3 19.6 48 8.2 NW 11 17 6 9 1008.2 - 0.0
21/09:00pm 32.2 32.4 19.4 46 8.5 NW 17 22 9 12 1007.9 1005.2 0.0
21/08:30pm 32.4 32.6 19.3 46 8.7 WNW 17 24 9 13 1007.6 - 0.0
21/08:00pm 32.9 33.3 18.9 43 9.3 WNW 15 22 8 12 1007.2 - 0.0
21/07:30pm 33.1 33.4 18.7 42 9.5 WNW 15 22 8 12 1006.8 - 0.0
21/07:00pm 34.6 34.4 17.5 36 11.2 W 15 24 8 13 1006.6 - 0.0
21/06:30pm 34.7 33.1 17.4 35 11.3 WSW 22 30 12 16 1006.1 - 0.0
21/06:00pm 35.0 33.3 18.2 37 11.1 WSW 24 33 13 18 1005.8 1003.1 0.0
21/05:30pm 35.6 33.4 18.6 36 11.3 SW 28 43 15 23 1005.7 - 0.0
21/05:00pm 36.7 34.2 18.0 33 12.3 SW 28 43 15 23 1005.5 - 0.0
21/04:30pm 38.4 35.2 16.2 27 14.4 SW 28 46 15 25 1005.4 - 0.0
21/04:03pm 39.8 36.4 15.7 24 15.6 SW 28 46 15 25 1005.5 - 0.0
21/04:00pm 38.9 36.0 15.2 24 15.2 SW 24 46 13 25 1005.5 - 0.0
21/03:30pm 39.3 36.2 11.7 19 16.9 SSW 19 41 10 22 1005.5 - 0.0
21/03:00pm 40.2 38.8 12.3 19 17.2 SW 11 28 6 15 1005.8 - 0.0
21/02:30pm 39.9 37.0 10.9 17 17.6 SSW 17 28 9 15 1006.4 - 0.0
21/02:00pm 39.7 37.4 11.9 19 17.1 SSW 15 22 8 12 1007.3 - 0.0
21/01:30pm 38.6 38.2 14.0 23 15.5 S 9 20 5 11 1007.9 - 0.0
21/01:00pm 38.0 36.8 12.8 22 15.6 SSW 11 19 6 10 1008.5 - 0.0
21/12:30pm 38.4 37.1 13.7 23 15.5 SSW 13 20 7 11 1009.1 - 0.0
21/12:00pm 37.2 35.8 14.4 25 14.4 SW 15 20 8 11 1009.8 1007.0 0.0
21/11:30am 35.7 34.8 14.8 28 13.2 SSW 13 20 7 11 1010.2 - 0.0
21/11:00am 34.8 34.3 15.8 32 12.1 S 13 19 7 10 1010.4 - 0.0
21/10:30am 33.8 32.6 17.1 37 10.8 S 19 26 10 14 1010.6 - 0.0
21/10:00am 32.8 32.0 18.1 41 9.6 S 19 30 10 16 1010.8 - 0.0
21/09:30am 32.0 32.6 19.4 47 8.4 S 15 24 8 13 1010.8 - 0.0
21/09:00am 30.0 31.4 19.6 53 6.9 S 11 19 6 10 1010.9 1008.2 0.0
21/08:30am 29.3 30.5 19.8 56 6.3 SSW 13 17 7 9 1010.9 - 0.0
21/08:00am 28.6 29.3 19.7 58 5.9 SSW 15 20 8 11 1010.5 - 0.0
21/07:30am 28.0 28.8 19.8 61 5.4 SW 15 20 8 11 1010.4 - 0.0
21/07:00am 27.6 29.4 20.4 65 4.8 SW 11 17 6 9 1010.2 - 0.0
21/06:30am 27.2 29.6 20.9 68 4.2 WSW 9 15 5 8 1010.1 - 0.0
21/06:00am 27.2 29.3 20.9 68 4.2 SSW 11 15 6 8 1009.4 1006.6 0.0
21/05:30am 27.3 29.0 21.0 68 4.2 SSW 13 17 7 9 1008.9 - 0.0
21/05:00am 27.0 29.7 21.4 71 3.8 SW 9 11 5 6 1008.7 - 0.0
21/04:30am 26.7 29.4 21.4 72 3.6 SW 9 11 5 6 1008.3 - 0.0
21/04:00am 26.4 29.0 21.2 73 3.5 WSW 9 13 5 7 1008.1 - 0.0
21/03:30am 26.8 29.7 21.0 70 3.9 SSW 7 9 4 5 1007.8 - 0.0
21/03:00am 26.8 31.1 21.1 71 3.8 CALM 0 0 0 0 1007.6 - 0.0
21/02:30am 27.1 31.6 21.5 71 3.8 CALM 0 0 0 0 1007.9 - 0.0
21/02:00am 27.4 30.4 21.2 69 4.2 WSW 7 9 4 5 1008.4 - 0.0
21/01:30am 27.6 30.8 21.2 68 4.3 W 6 9 3 5 1008.7 - 0.0
21/01:00am 27.9 30.6 20.7 65 4.8 WSW 7 9 4 5 1008.9 - 0.0
21/12:30am 28.2 30.9 20.7 63 5.0 WSW 7 13 4 7 1009.1 - 0.0
21/12:00am 28.6 30.1 20.5 61 5.4 W 13 17 7 9 1009.7 1006.9 0.0
 
Date/Time
CST
Temp
°C
App
Temp
°C
Dew
Point
Rel
Hum
%
Delta-T
°C
Wind Press
QNH
hPa
Press
MSL
hPa
Rain
since 9 am
mm
Dir
 
Spd
km/h
Gust
km/h
Spd
kts
Gust
kts
20/11:30pm 28.9 30.9 20.7 61 5.5 WSW 11 15 6 8 1010.0 - 0.0
20/11:00pm 29.3 30.3 20.3 58 6.0 WSW 15 20 8 11 1010.0 - 0.0
20/10:30pm 29.6 30.1 20.0 56 6.4 WSW 17 24 9 13 1010.0 - 0.0
20/10:00pm 30.1 30.9 19.9 54 6.8 W 15 24 8 13 1010.0 - 0.0
20/09:30pm 30.2 31.6 20.4 55 6.6 WSW 13 19 7 10 1009.7 - 0.0
20/09:00pm 30.4 31.4 20.2 54 6.8 WSW 15 20 8 11 1009.5 1006.8 0.0
20/08:30pm 30.6 30.6 19.8 52 7.2 WSW 19 30 10 16 1009.3 - 0.0
20/08:00pm 30.8 30.3 20.0 52 7.2 WSW 22 32 12 17 1009.0 - 0.0
20/07:30pm 31.0 29.5 20.3 53 7.2 WSW 28 37 15 20 1008.6 - 0.0
20/07:00pm 32.1 29.5 19.5 47 8.4 WSW 32 46 17 25 1008.3 - 0.0
20/06:30pm 32.7 30.3 19.9 46 8.6 WSW 32 43 17 23 1007.8 - 0.0
20/06:17pm 33.7 32.0 19.9 44 9.3 WSW 28 46 15 25 1007.5 - 0.0
20/06:00pm 38.3 37.9 14.0 23 15.3 SE 9 15 5 8 1006.4 1003.7 0.0
20/05:30pm 38.3 37.7 14.5 24 15.1 ESE 11 20 6 11 1006.1 - 0.0
20/05:00pm 38.8 38.0 16.2 26 14.7 SE 15 22 8 12 1006.2 - 0.0
20/04:30pm 39.6 38.3 13.8 21 16.2 E 13 22 7 12 1006.1 - 0.0
20/04:00pm 39.7 39.0 14.4 22 16.1 SSE 11 19 6 10 1006.6 - 0.0
20/03:30pm 39.1 38.9 14.8 23 15.5 ESE 9 20 5 11 1007.1 - 0.0
20/03:00pm 38.7 38.8 15.4 25 15.0 NE 9 17 5 9 1007.6 1004.9 0.0
20/02:30pm 40.0 39.5 15.8 24 15.7 NE 13 30 7 16 1008.0 - 0.0
20/02:00pm 38.4 37.6 15.1 25 14.9 SE 13 30 7 16 1008.5 - 0.0
20/01:30pm 38.2 37.4 15.0 25 14.8 E 13 24 7 13 1009.3 - 0.0
20/01:00pm 37.5 36.8 15.3 26 14.2 ENE 13 28 7 15 1010.1 - 0.0
20/12:30pm 37.6 36.8 15.2 26 14.3 NE 13 26 7 14 1010.7 - 0.0
20/12:00pm 35.8 34.2 16.0 30 12.7 ENE 19 30 10 16 1011.6 1008.9 0.0
20/11:30am 36.5 34.4 15.3 28 13.5 NE 20 30 11 16 1012.1 - 0.0
20/11:00am 36.0 34.4 16.1 30 12.8 ENE 19 28 10 15 1012.2 - 0.0
20/10:30am 35.7 34.7 16.7 32 12.3 E 17 32 9 17 1012.6 - 0.0
20/10:00am 34.6 34.2 17.2 35 11.3 ENE 15 22 8 12 1012.8 - 0.0
20/09:30am 33.4 32.9 17.8 39 10.2 ENE 17 30 9 16 1012.9 - 0.0
20/09:00am 31.9 34.0 19.0 46 8.5 SW 6 17 3 9 1012.9 1010.2 0.0
20/08:30am 30.8 33.3 20.2 53 7.1 W 7 13 4 7 1012.9 - 0.0
20/08:00am 29.4 32.1 21.3 61 5.5 W 9 15 5 8 1012.9 - 0.0
20/07:30am 28.0 31.2 21.7 68 4.3 WSW 7 11 4 6 1012.8 - 0.0
20/07:00am 26.8 31.3 21.6 73 3.5 CALM 0 6 0 3 1012.4 - 0.0
20/06:30am 25.5 28.7 21.2 77 2.9 SW 6 7 3 4 1012.1 - 0.0
20/06:00am 25.2 28.1 21.0 77 2.8 WSW 7 11 4 6 1011.5 - 0.0
20/05:30am 25.6 28.5 21.1 76 3.0 NW 7 11 4 6 1011.2 - 0.0
20/05:00am 26.0 28.5 21.1 74 3.3 NNW 9 11 5 6 1011.0 - 0.0
20/04:30am 25.9 28.8 21.0 74 3.3 NNW 7 9 4 5 1011.1 - 0.0
20/04:00am 26.2 30.6 21.4 75 3.2 CALM 0 6 0 3 1011.2 - 0.0
20/03:30am 26.5 29.4 21.1 72 3.6 W 7 11 4 6 1011.1 - 0.0
20/03:00am 26.6 29.5 21.1 72 3.7 W 7 11 4 6 1011.0 - 0.0
20/02:30am 27.2 30.2 20.8 68 4.3 W 6 9 3 5 1010.8 - 0.0
20/02:00am 27.7 29.4 20.2 63 5.0 N 11 13 6 7 1010.9 - 0.0
20/01:30am 28.1 30.4 19.9 61 5.4 W 7 9 4 5 1011.1 - 0.0
20/01:00am 29.0 31.3 19.8 57 6.1 N 7 9 4 5 1011.3 - 0.0
20/12:30am 29.6 29.5 15.9 43 8.6 N 11 15 6 8 1011.5 - 0.0
20/12:00am 30.1 29.8 14.5 38 9.6 NNE 9 11 5 6 1011.4 - 0.0
 
Date/Time
CST
Temp
°C
App
Temp
°C
Dew
Point
Rel
Hum
%
Delta-T
°C
Wind Press
QNH
hPa
Press
MSL
hPa
Rain
since 9 am
mm
Dir
 
Spd
km/h
Gust
km/h
Spd
kts
Gust
kts
19/11:30pm 30.3 30.7 15.2 40 9.4 E 7 11 4 6 1011.5 - 0.0
19/11:00pm 30.7 31.1 15.3 39 9.6 ESE 7 9 4 5 1011.4 - 0.0
19/10:30pm 31.5 31.4 15.0 36 10.3 E 9 11 5 6 1011.2 - 0.0
19/10:00pm 32.2 32.0 14.7 34 10.9 ESE 9 11 5 6 1011.1 - 0.0
19/09:30pm 32.9 33.0 14.4 32 11.5 SE 7 11 4 6 1011.0 - 0.0
19/09:00pm 33.3 33.4 14.5 32 11.7 SE 7 11 4 6 1010.6 1007.9 0.0
19/08:30pm 33.9 34.3 15.2 32 11.8 SSE 7 9 4 5 1010.2 - 0.0
19/08:00pm 34.9 35.0 15.4 31 12.4 SE 9 13 5 7 1009.9 - 0.0
19/07:30pm 36.1 34.8 14.7 28 13.5 SE 15 20 8 11 1009.5 - 0.0
19/07:00pm 36.9 35.4 15.3 27 13.8 SE 17 20 9 11 1009.1 - 0.0
19/06:30pm 37.6 36.1 15.2 26 14.3 ESE 17 26 9 14 1008.8 - 0.0
19/06:00pm 37.5 35.6 15.1 26 14.3 SE 19 30 10 16 1008.6 1005.9 0.0
19/05:30pm 38.6 37.8 15.2 25 15.0 SSE 13 20 7 11 1008.3 - 0.0
19/05:00pm 38.2 37.1 15.2 25 14.7 SE 15 26 8 14 1008.5 - 0.0
19/04:30pm 38.8 36.7 14.6 24 15.4 SE 19 30 10 16 1008.7 - 0.0
19/04:00pm 38.3 37.7 14.5 24 15.1 SSW 11 26 6 14 1009.1 - 0.0
19/03:30pm 38.6 37.7 14.9 24 15.1 S 13 26 7 14 1009.8 - 0.0
19/03:00pm 37.4 36.8 15.6 27 14.0 SSE 13 20 7 11 1010.2 1007.5 0.0
19/02:30pm 37.3 36.4 15.9 28 13.8 SE 15 24 8 13 1010.8 - 0.0
19/02:00pm 37.3 35.2 15.2 27 14.1 SE 20 30 11 16 1011.3 - 0.0
19/01:30pm 36.1 34.0 16.2 30 12.8 SSE 22 33 12 18 1011.9 - 0.0
19/01:00pm 37.2 35.6 16.1 28 13.6 SSE 19 28 10 15 1012.2 - 0.0
19/12:30pm 36.1 35.6 16.9 32 12.5 ENE 15 26 8 14 1012.8 - 0.0
19/12:00pm 37.0 35.5 16.7 30 13.2 SE 20 39 11 21 1013.3 - 0.0
19/11:30am 35.7 35.2 16.9 32 12.2 SSE 15 26 8 14 1013.8 - 0.0
19/11:00am 35.0 34.5 16.9 34 11.7 ESE 15 22 8 12 1014.2 - 0.0
19/10:30am 35.0 34.2 17.1 34 11.6 ESE 17 26 9 14 1014.3 - 0.0
19/10:00am 33.4 32.3 17.4 38 10.4 ESE 19 28 10 15 1014.6 - 0.0
19/09:30am 32.4 32.2 18.4 43 9.2 ESE 17 26 9 14 1014.7 - 0.0
19/09:00am 31.6 31.0 18.8 46 8.4 SE 20 30 11 16 1014.7 1012.0 0.0
19/08:30am 30.7 30.9 19.4 51 7.5 SE 17 26 9 14 1014.9 - 0.0
19/08:00am 30.1 31.3 20.6 56 6.4 S 15 20 8 11 1014.5 - 0.0
19/07:30am 28.1 28.6 20.9 65 4.8 S 19 28 10 15 1014.1 - 0.0
19/07:00am 27.7 29.7 20.7 65 4.7 S 11 15 6 8 1013.4 - 0.0
19/06:30am 26.5 28.0 20.6 70 3.9 S 13 15 7 8 1013.1 - 0.0
19/06:00am 26.5 27.5 20.3 68 4.1 S 15 20 8 11 1012.2 - 0.0
19/05:30am 26.5 27.7 20.0 67 4.3 S 13 19 7 10 1011.8 - 0.0
19/05:00am 26.5 27.7 19.8 66 4.4 S 13 19 7 10 1011.4 - 0.0
19/04:30am 26.3 27.6 20.1 68 4.1 S 13 15 7 8 1011.1 - 0.0
19/04:00am 26.5 28.9 20.0 67 4.3 SSW 7 9 4 5 1011.2 - 0.0
19/03:30am 26.8 29.4 20.0 66 4.5 S 6 9 3 5 1011.1 - 0.0
19/03:00am 26.9 28.5 19.9 65 4.6 S 11 15 6 8 1011.0 - 0.0
19/02:30am 26.8 28.8 20.0 66 4.5 S 9 13 5 7 1011.1 - 0.0
19/02:00am 26.8 28.2 20.3 67 4.3 S 13 17 7 9 1010.9 - 0.0
19/01:30am 27.4 29.1 20.2 65 4.8 S 11 15 6 8 1010.9 - 0.0
19/01:00am 27.8 29.4 19.9 62 5.2 S 11 15 6 8 1011.2 - 0.0
19/12:30am 28.6 30.1 19.8 59 5.8 SSW 11 15 6 8 1011.2 - 0.0
19/12:00am 28.9 31.1 19.5 57 6.2 SW 7 11 4 6 1011.3 - 0.0
 
Date/Time
CST
Temp
°C
App
Temp
°C
Dew
Point
Rel
Hum
%
Delta-T
°C
Wind Press
QNH
hPa
Press
MSL
hPa
Rain
since 9 am
mm
Dir
 
Spd
km/h
Gust
km/h
Spd
kts
Gust
kts
18/11:30pm 28.9 32.1 20.4 60 5.7 W 4 9 2 5 1011.2 - 0.0
18/11:00pm 29.0 31.1 20.1 58 5.9 NNE 9 13 5 7 1011.1 - 0.0
18/10:30pm 29.9 31.2 19.3 53 7.0 WNW 11 22 6 12 1011.2 - 0.0
18/10:00pm 30.1 29.2 18.3 49 7.7 NW 20 28 11 15 1010.7 - 0.0

Other Formats:

Comma delimited format used in spreadsheet applications
http://www.bom.gov.au/fwo/IDD60801/IDD60801.95322.axf

JavaScript Object Notation format (JSON) in row-major order
http://www.bom.gov.au/fwo/IDD60801/IDD60801.95322.json